sensor_id;sensor_type;location;lat;lon;timestamp;P1;durP1;ratioP1;P2;durP2;ratioP2
44145;SDS011;29809;52.432;4.780;2023-04-27T00:00:13;4.47;;;2.45;;
44145;SDS011;29809;52.432;4.780;2023-04-27T00:02:38;3.60;;;3.05;;
44145;SDS011;29809;52.432;4.780;2023-04-27T00:05:03;2.47;;;2.17;;
44145;SDS011;29809;52.432;4.780;2023-04-27T00:07:29;2.45;;;2.20;;
44145;SDS011;29809;52.432;4.780;2023-04-27T00:09:54;3.42;;;2.10;;
44145;SDS011;29809;52.432;4.780;2023-04-27T00:12:20;2.92;;;2.42;;
44145;SDS011;29809;52.432;4.780;2023-04-27T00:14:45;2.63;;;2.40;;
44145;SDS011;29809;52.432;4.780;2023-04-27T00:17:10;2.92;;;2.60;;
44145;SDS011;29809;52.432;4.780;2023-04-27T00:19:36;2.45;;;2.25;;
44145;SDS011;29809;52.432;4.780;2023-04-27T00:22:01;2.40;;;2.20;;
44145;SDS011;29809;52.432;4.780;2023-04-27T00:24:26;2.00;;;1.90;;
44145;SDS011;29809;52.432;4.780;2023-04-27T00:26:52;3.53;;;2.03;;
44145;SDS011;29809;52.432;4.780;2023-04-27T00:29:17;2.28;;;2.08;;
44145;SDS011;29809;52.432;4.780;2023-04-27T00:31:42;1.98;;;1.83;;
44145;SDS011;29809;52.432;4.780;2023-04-27T00:34:07;2.45;;;2.03;;
44145;SDS011;29809;52.432;4.780;2023-04-27T00:36:33;2.63;;;2.20;;
44145;SDS011;29809;52.432;4.780;2023-04-27T00:38:59;2.50;;;2.30;;
44145;SDS011;29809;52.432;4.780;2023-04-27T00:41:24;3.60;;;2.28;;
44145;SDS011;29809;52.432;4.780;2023-04-27T00:43:49;2.45;;;2.15;;
44145;SDS011;29809;52.432;4.780;2023-04-27T00:46:15;2.75;;;2.47;;
44145;SDS011;29809;52.432;4.780;2023-04-27T00:48:40;3.70;;;2.13;;
44145;SDS011;29809;52.432;4.780;2023-04-27T00:51:06;2.33;;;2.13;;
44145;SDS011;29809;52.432;4.780;2023-04-27T00:53:31;2.97;;;2.10;;
44145;SDS011;29809;52.432;4.780;2023-04-27T00:55:57;1.80;;;1.70;;
44145;SDS011;29809;52.432;4.780;2023-04-27T00:58:22;2.45;;;2.08;;
44145;SDS011;29809;52.432;4.780;2023-04-27T01:00:48;2.13;;;1.92;;
44145;SDS011;29809;52.432;4.780;2023-04-27T01:03:13;2.38;;;1.70;;
44145;SDS011;29809;52.432;4.780;2023-04-27T01:05:38;3.47;;;2.03;;
44145;SDS011;29809;52.432;4.780;2023-04-27T01:08:04;2.03;;;1.92;;
44145;SDS011;29809;52.432;4.780;2023-04-27T01:10:30;2.42;;;2.15;;
44145;SDS011;29809;52.432;4.780;2023-04-27T01:12:55;2.00;;;1.90;;
44145;SDS011;29809;52.432;4.780;2023-04-27T01:15:21;2.25;;;1.90;;
44145;SDS011;29809;52.432;4.780;2023-04-27T01:17:46;1.55;;;1.45;;
44145;SDS011;29809;52.432;4.780;2023-04-27T01:20:12;2.22;;;1.70;;
44145;SDS011;29809;52.432;4.780;2023-04-27T01:22:39;2.50;;;1.90;;
44145;SDS011;29809;52.432;4.780;2023-04-27T01:25:04;1.67;;;1.55;;
44145;SDS011;29809;52.432;4.780;2023-04-27T01:27:30;2.05;;;1.42;;
44145;SDS011;29809;52.432;4.780;2023-04-27T01:29:55;2.45;;;2.20;;
44145;SDS011;29809;52.432;4.780;2023-04-27T01:32:21;2.15;;;1.95;;
44145;SDS011;29809;52.432;4.780;2023-04-27T01:34:46;1.80;;;1.70;;
44145;SDS011;29809;52.432;4.780;2023-04-27T01:37:11;1.80;;;1.70;;
44145;SDS011;29809;52.432;4.780;2023-04-27T01:39:37;2.13;;;1.80;;
44145;SDS011;29809;52.432;4.780;2023-04-27T01:42:02;1.92;;;1.83;;
44145;SDS011;29809;52.432;4.780;2023-04-27T01:44:27;2.08;;;1.88;;
44145;SDS011;29809;52.432;4.780;2023-04-27T01:46:53;2.55;;;1.90;;
44145;SDS011;29809;52.432;4.780;2023-04-27T01:49:18;2.17;;;1.90;;
44145;SDS011;29809;52.432;4.780;2023-04-27T01:51:43;1.85;;;1.67;;
44145;SDS011;29809;52.432;4.780;2023-04-27T01:54:08;1.92;;;1.75;;
44145;SDS011;29809;52.432;4.780;2023-04-27T01:56:34;2.33;;;1.80;;
44145;SDS011;29809;52.432;4.780;2023-04-27T01:58:59;1.65;;;1.48;;
44145;SDS011;29809;52.432;4.780;2023-04-27T02:01:24;2.70;;;1.88;;
44145;SDS011;29809;52.432;4.780;2023-04-27T02:03:50;2.28;;;2.08;;
44145;SDS011;29809;52.432;4.780;2023-04-27T02:06:15;1.75;;;1.65;;
44145;SDS011;29809;52.432;4.780;2023-04-27T02:08:40;2.15;;;1.95;;
44145;SDS011;29809;52.432;4.780;2023-04-27T02:11:05;3.00;;;1.58;;
44145;SDS011;29809;52.432;4.780;2023-04-27T02:13:31;2.30;;;1.98;;
44145;SDS011;29809;52.432;4.780;2023-04-27T02:15:56;1.85;;;1.63;;
44145;SDS011;29809;52.432;4.780;2023-04-27T02:18:21;1.83;;;1.60;;
44145;SDS011;29809;52.432;4.780;2023-04-27T02:20:48;2.97;;;1.63;;
44145;SDS011;29809;52.432;4.780;2023-04-27T02:23:13;2.15;;;1.83;;
44145;SDS011;29809;52.432;4.780;2023-04-27T02:25:39;1.73;;;1.63;;
44145;SDS011;29809;52.432;4.780;2023-04-27T02:28:06;2.05;;;1.92;;
44145;SDS011;29809;52.432;4.780;2023-04-27T02:30:32;1.75;;;1.60;;
44145;SDS011;29809;52.432;4.780;2023-04-27T02:32:58;1.95;;;1.60;;
44145;SDS011;29809;52.432;4.780;2023-04-27T02:35:23;1.80;;;1.63;;
44145;SDS011;29809;52.432;4.780;2023-04-27T02:37:48;1.80;;;1.70;;
44145;SDS011;29809;52.432;4.780;2023-04-27T02:40:14;1.95;;;1.75;;
44145;SDS011;29809;52.432;4.780;2023-04-27T02:42:39;2.40;;;1.85;;
44145;SDS011;29809;52.432;4.780;2023-04-27T02:45:05;2.30;;;2.03;;
44145;SDS011;29809;52.432;4.780;2023-04-27T02:47:30;3.67;;;2.13;;
44145;SDS011;29809;52.432;4.780;2023-04-27T02:49:56;2.47;;;1.95;;
44145;SDS011;29809;52.432;4.780;2023-04-27T02:52:21;2.20;;;1.95;;
44145;SDS011;29809;52.432;4.780;2023-04-27T02:54:46;3.53;;;2.03;;
44145;SDS011;29809;52.432;4.780;2023-04-27T02:57:11;1.60;;;1.50;;
44145;SDS011;29809;52.432;4.780;2023-04-27T02:59:37;1.67;;;1.50;;
44145;SDS011;29809;52.432;4.780;2023-04-27T03:02:02;1.90;;;1.73;;
44145;SDS011;29809;52.432;4.780;2023-04-27T03:04:27;2.22;;;1.95;;
44145;SDS011;29809;52.432;4.780;2023-04-27T03:06:52;2.20;;;2.00;;
44145;SDS011;29809;52.432;4.780;2023-04-27T03:09:18;2.20;;;1.90;;
44145;SDS011;29809;52.432;4.780;2023-04-27T03:11:43;1.90;;;1.80;;
44145;SDS011;29809;52.432;4.780;2023-04-27T03:14:08;1.80;;;1.70;;
44145;SDS011;29809;52.432;4.780;2023-04-27T03:16:34;1.60;;;1.50;;
44145;SDS011;29809;52.432;4.780;2023-04-27T03:18:59;1.80;;;1.70;;
44145;SDS011;29809;52.432;4.780;2023-04-27T03:21:24;2.03;;;1.92;;
44145;SDS011;29809;52.432;4.780;2023-04-27T03:23:50;2.28;;;1.85;;
44145;SDS011;29809;52.432;4.780;2023-04-27T03:26:16;4.50;;;1.98;;
44145;SDS011;29809;52.432;4.780;2023-04-27T03:28:41;3.63;;;2.03;;
44145;SDS011;29809;52.432;4.780;2023-04-27T03:31:07;1.85;;;1.75;;
44145;SDS011;29809;52.432;4.780;2023-04-27T03:33:33;1.88;;;1.67;;
44145;SDS011;29809;52.432;4.780;2023-04-27T03:35:58;2.45;;;1.63;;
44145;SDS011;29809;52.432;4.780;2023-04-27T03:38:24;1.98;;;1.80;;
44145;SDS011;29809;52.432;4.780;2023-04-27T03:40:49;2.10;;;1.90;;
44145;SDS011;29809;52.432;4.780;2023-04-27T03:43:14;2.47;;;2.28;;
44145;SDS011;29809;52.432;4.780;2023-04-27T03:45:40;2.20;;;1.98;;
44145;SDS011;29809;52.432;4.780;2023-04-27T03:48:05;2.00;;;1.60;;
44145;SDS011;29809;52.432;4.780;2023-04-27T03:50:30;2.10;;;2.00;;
44145;SDS011;29809;52.432;4.780;2023-04-27T03:52:56;2.78;;;2.03;;
44145;SDS011;29809;52.432;4.780;2023-04-27T03:55:21;1.88;;;1.77;;
44145;SDS011;29809;52.432;4.780;2023-04-27T03:57:46;2.35;;;1.83;;
44145;SDS011;29809;52.432;4.780;2023-04-27T04:00:12;2.65;;;1.95;;
44145;SDS011;29809;52.432;4.780;2023-04-27T04:02:38;2.92;;;2.17;;
44145;SDS011;29809;52.432;4.780;2023-04-27T04:05:04;2.08;;;1.98;;
44145;SDS011;29809;52.432;4.780;2023-04-27T04:07:29;2.00;;;1.80;;
44145;SDS011;29809;52.432;4.780;2023-04-27T04:09:55;1.75;;;1.60;;
44145;SDS011;29809;52.432;4.780;2023-04-27T04:12:20;2.85;;;2.05;;
44145;SDS011;29809;52.432;4.780;2023-04-27T04:14:45;1.90;;;1.75;;
44145;SDS011;29809;52.432;4.780;2023-04-27T04:17:12;1.67;;;1.58;;
44145;SDS011;29809;52.432;4.780;2023-04-27T04:19:38;1.90;;;1.77;;
44145;SDS011;29809;52.432;4.780;2023-04-27T04:22:03;2.90;;;1.80;;
44145;SDS011;29809;52.432;4.780;2023-04-27T04:24:29;2.40;;;1.98;;
44145;SDS011;29809;52.432;4.780;2023-04-27T04:26:54;2.97;;;2.00;;
44145;SDS011;29809;52.432;4.780;2023-04-27T04:29:19;2.25;;;1.90;;
44145;SDS011;29809;52.432;4.780;2023-04-27T04:31:45;1.80;;;1.70;;
44145;SDS011;29809;52.432;4.780;2023-04-27T04:34:11;3.55;;;1.80;;
44145;SDS011;29809;52.432;4.780;2023-04-27T04:36:36;2.63;;;2.42;;
44145;SDS011;29809;52.432;4.780;2023-04-27T04:39:02;2.83;;;2.08;;
44145;SDS011;29809;52.432;4.780;2023-04-27T04:41:27;2.25;;;2.05;;
44145;SDS011;29809;52.432;4.780;2023-04-27T04:43:52;2.28;;;2.08;;
44145;SDS011;29809;52.432;4.780;2023-04-27T04:46:18;2.03;;;1.80;;
44145;SDS011;29809;52.432;4.780;2023-04-27T04:48:44;2.28;;;2.08;;
44145;SDS011;29809;52.432;4.780;2023-04-27T04:51:09;3.53;;;1.73;;
44145;SDS011;29809;52.432;4.780;2023-04-27T04:53:34;3.05;;;2.38;;
44145;SDS011;29809;52.432;4.780;2023-04-27T04:56:09;2.58;;;2.13;;
44145;SDS011;29809;52.432;4.780;2023-04-27T04:58:35;3.47;;;2.15;;
44145;SDS011;29809;52.432;4.780;2023-04-27T05:01:00;2.22;;;2.03;;
44145;SDS011;29809;52.432;4.780;2023-04-27T05:03:26;3.13;;;1.95;;
44145;SDS011;29809;52.432;4.780;2023-04-27T05:05:51;3.33;;;1.92;;
44145;SDS011;29809;52.432;4.780;2023-04-27T05:08:16;1.92;;;1.73;;
44145;SDS011;29809;52.432;4.780;2023-04-27T05:10:47;2.28;;;2.08;;
44145;SDS011;29809;52.432;4.780;2023-04-27T05:13:12;1.92;;;1.73;;
44145;SDS011;29809;52.432;4.780;2023-04-27T05:15:37;4.88;;;2.03;;
44145;SDS011;29809;52.432;4.780;2023-04-27T05:18:03;7.25;;;2.47;;
44145;SDS011;29809;52.432;4.780;2023-04-27T05:20:28;3.08;;;2.00;;
44145;SDS011;29809;52.432;4.780;2023-04-27T05:22:53;4.18;;;2.50;;
44145;SDS011;29809;52.432;4.780;2023-04-27T05:25:18;2.20;;;1.92;;
44145;SDS011;29809;52.432;4.780;2023-04-27T05:27:43;2.45;;;2.00;;
44145;SDS011;29809;52.432;4.780;2023-04-27T05:30:09;1.95;;;1.80;;
44145;SDS011;29809;52.432;4.780;2023-04-27T05:32:35;2.97;;;1.95;;
44145;SDS011;29809;52.432;4.780;2023-04-27T05:35:01;3.08;;;1.70;;
44145;SDS011;29809;52.432;4.780;2023-04-27T05:37:27;1.60;;;1.50;;
44145;SDS011;29809;52.432;4.780;2023-04-27T05:39:52;2.78;;;1.60;;
44145;SDS011;29809;52.432;4.780;2023-04-27T05:42:17;1.65;;;1.55;;
44145;SDS011;29809;52.432;4.780;2023-04-27T05:44:42;1.85;;;1.52;;
44145;SDS011;29809;52.432;4.780;2023-04-27T05:47:08;2.00;;;1.42;;
44145;SDS011;29809;52.432;4.780;2023-04-27T05:49:33;2.58;;;1.70;;
44145;SDS011;29809;52.432;4.780;2023-04-27T05:51:58;1.70;;;1.60;;
44145;SDS011;29809;52.432;4.780;2023-04-27T05:54:23;2.25;;;1.55;;
44145;SDS011;29809;52.432;4.780;2023-04-27T05:56:49;2.15;;;1.40;;
44145;SDS011;29809;52.432;4.780;2023-04-27T05:59:15;1.70;;;1.60;;
44145;SDS011;29809;52.432;4.780;2023-04-27T06:01:40;2.95;;;1.50;;
44145;SDS011;29809;52.432;4.780;2023-04-27T06:04:05;1.63;;;1.48;;
44145;SDS011;29809;52.432;4.780;2023-04-27T06:06:31;3.10;;;1.60;;
44145;SDS011;29809;52.432;4.780;2023-04-27T06:08:57;1.92;;;1.25;;
44145;SDS011;29809;52.432;4.780;2023-04-27T06:11:22;1.70;;;1.60;;
44145;SDS011;29809;52.432;4.780;2023-04-27T06:13:47;2.10;;;1.50;;
44145;SDS011;29809;52.432;4.780;2023-04-27T06:16:12;2.38;;;1.50;;
44145;SDS011;29809;52.432;4.780;2023-04-27T06:18:38;1.70;;;1.55;;
44145;SDS011;29809;52.432;4.780;2023-04-27T06:21:03;1.80;;;1.67;;
44145;SDS011;29809;52.432;4.780;2023-04-27T06:23:28;2.22;;;1.50;;
44145;SDS011;29809;52.432;4.780;2023-04-27T06:25:54;1.85;;;1.38;;
44145;SDS011;29809;52.432;4.780;2023-04-27T06:28:19;3.08;;;1.52;;
44145;SDS011;29809;52.432;4.780;2023-04-27T06:30:44;93.05;;;26.00;;
44145;SDS011;29809;52.432;4.780;2023-04-27T06:33:10;34.80;;;12.57;;
44145;SDS011;29809;52.432;4.780;2023-04-27T06:35:35;57.58;;;19.67;;
44145;SDS011;29809;52.432;4.780;2023-04-27T06:38:00;66.38;;;20.25;;
44145;SDS011;29809;52.432;4.780;2023-04-27T06:40:26;53.08;;;18.15;;
44145;SDS011;29809;52.432;4.780;2023-04-27T06:42:51;67.03;;;18.65;;
44145;SDS011;29809;52.432;4.780;2023-04-27T06:45:16;47.40;;;15.77;;
44145;SDS011;29809;52.432;4.780;2023-04-27T06:47:42;43.10;;;14.57;;
44145;SDS011;29809;52.432;4.780;2023-04-27T06:50:07;32.33;;;11.80;;
44145;SDS011;29809;52.432;4.780;2023-04-27T06:52:32;36.88;;;12.07;;
44145;SDS011;29809;52.432;4.780;2023-04-27T06:54:58;27.30;;;11.30;;
44145;SDS011;29809;52.432;4.780;2023-04-27T06:57:23;32.40;;;11.20;;
44145;SDS011;29809;52.432;4.780;2023-04-27T06:59:49;31.67;;;9.90;;
44145;SDS011;29809;52.432;4.780;2023-04-27T07:02:15;26.45;;;9.05;;
44145;SDS011;29809;52.432;4.780;2023-04-27T07:04:40;22.60;;;9.23;;
44145;SDS011;29809;52.432;4.780;2023-04-27T07:07:05;20.10;;;9.48;;
44145;SDS011;29809;52.432;4.780;2023-04-27T07:09:30;21.75;;;8.30;;
44145;SDS011;29809;52.432;4.780;2023-04-27T07:11:56;21.67;;;8.32;;
44145;SDS011;29809;52.432;4.780;2023-04-27T07:14:22;24.92;;;7.97;;
44145;SDS011;29809;52.432;4.780;2023-04-27T07:16:48;14.95;;;7.05;;
44145;SDS011;29809;52.432;4.780;2023-04-27T07:19:13;13.23;;;6.60;;
44145;SDS011;29809;52.432;4.780;2023-04-27T07:21:38;12.77;;;6.18;;
44145;SDS011;29809;52.432;4.780;2023-04-27T07:24:03;13.40;;;6.03;;
44145;SDS011;29809;52.432;4.780;2023-04-27T07:26:29;12.68;;;6.38;;
44145;SDS011;29809;52.432;4.780;2023-04-27T07:28:56;13.13;;;5.95;;
44145;SDS011;29809;52.432;4.780;2023-04-27T07:31:21;10.60;;;4.78;;
44145;SDS011;29809;52.432;4.780;2023-04-27T07:33:46;12.75;;;5.65;;
44145;SDS011;29809;52.432;4.780;2023-04-27T07:36:11;11.23;;;4.57;;
44145;SDS011;29809;52.432;4.780;2023-04-27T07:38:37;13.60;;;5.32;;
44145;SDS011;29809;52.432;4.780;2023-04-27T07:41:02;9.75;;;5.03;;
44145;SDS011;29809;52.432;4.780;2023-04-27T07:43:29;10.32;;;4.97;;
44145;SDS011;29809;52.432;4.780;2023-04-27T07:45:56;10.95;;;4.53;;
44145;SDS011;29809;52.432;4.780;2023-04-27T07:48:22;9.73;;;4.10;;
44145;SDS011;29809;52.432;4.780;2023-04-27T07:50:48;10.65;;;4.40;;
44145;SDS011;29809;52.432;4.780;2023-04-27T07:53:13;13.82;;;4.32;;
44145;SDS011;29809;52.432;4.780;2023-04-27T07:55:39;11.63;;;4.40;;
44145;SDS011;29809;52.432;4.780;2023-04-27T07:58:05;8.52;;;4.20;;
44145;SDS011;29809;52.432;4.780;2023-04-27T08:00:30;8.98;;;3.47;;
44145;SDS011;29809;52.432;4.780;2023-04-27T08:02:56;29.50;;;9.52;;
44145;SDS011;29809;52.432;4.780;2023-04-27T08:05:21;27.60;;;6.32;;
44145;SDS011;29809;52.432;4.780;2023-04-27T08:07:46;13.30;;;5.43;;
44145;SDS011;29809;52.432;4.780;2023-04-27T08:10:12;20.65;;;5.57;;
44145;SDS011;29809;52.432;4.780;2023-04-27T08:12:37;13.15;;;4.70;;
44145;SDS011;29809;52.432;4.780;2023-04-27T08:15:04;12.75;;;4.85;;
44145;SDS011;29809;52.432;4.780;2023-04-27T08:17:29;11.52;;;4.72;;
44145;SDS011;29809;52.432;4.780;2023-04-27T08:19:54;11.23;;;3.97;;
44145;SDS011;29809;52.432;4.780;2023-04-27T08:22:20;7.40;;;3.95;;
44145;SDS011;29809;52.432;4.780;2023-04-27T08:24:45;9.90;;;3.72;;
44145;SDS011;29809;52.432;4.780;2023-04-27T08:27:10;8.52;;;4.40;;
44145;SDS011;29809;52.432;4.780;2023-04-27T08:29:36;9.20;;;4.10;;
44145;SDS011;29809;52.432;4.780;2023-04-27T08:32:01;13.88;;;3.50;;
44145;SDS011;29809;52.432;4.780;2023-04-27T08:34:27;8.23;;;3.20;;
44145;SDS011;29809;52.432;4.780;2023-04-27T08:36:52;4.05;;;3.13;;
44145;SDS011;29809;52.432;4.780;2023-04-27T08:39:21;6.15;;;3.03;;
44145;SDS011;29809;52.432;4.780;2023-04-27T08:41:46;6.30;;;3.08;;
44145;SDS011;29809;52.432;4.780;2023-04-27T08:44:12;4.20;;;2.97;;
44145;SDS011;29809;52.432;4.780;2023-04-27T08:46:37;4.75;;;3.00;;
44145;SDS011;29809;52.432;4.780;2023-04-27T08:49:03;4.22;;;2.70;;
44145;SDS011;29809;52.432;4.780;2023-04-27T08:51:28;4.78;;;2.35;;
44145;SDS011;29809;52.432;4.780;2023-04-27T08:53:55;5.53;;;2.50;;
44145;SDS011;29809;52.432;4.780;2023-04-27T08:56:21;4.00;;;2.50;;
44145;SDS011;29809;52.432;4.780;2023-04-27T08:58:50;3.92;;;2.17;;
44145;SDS011;29809;52.432;4.780;2023-04-27T09:01:15;6.53;;;2.47;;
44145;SDS011;29809;52.432;4.780;2023-04-27T09:03:41;3.88;;;2.13;;
44145;SDS011;29809;52.432;4.780;2023-04-27T09:06:06;5.05;;;2.28;;
44145;SDS011;29809;52.432;4.780;2023-04-27T09:08:45;7.82;;;2.10;;
44145;SDS011;29809;52.432;4.780;2023-04-27T09:11:11;3.97;;;2.42;;
44145;SDS011;29809;52.432;4.780;2023-04-27T09:13:37;4.00;;;1.80;;
44145;SDS011;29809;52.432;4.780;2023-04-27T09:16:03;2.67;;;1.95;;
44145;SDS011;29809;52.432;4.780;2023-04-27T09:18:28;4.13;;;1.85;;
44145;SDS011;29809;52.432;4.780;2023-04-27T09:20:57;2.80;;;1.90;;
44145;SDS011;29809;52.432;4.780;2023-04-27T09:23:26;6.63;;;2.05;;
44145;SDS011;29809;52.432;4.780;2023-04-27T09:25:52;1.88;;;1.48;;
44145;SDS011;29809;52.432;4.780;2023-04-27T09:28:17;3.50;;;2.03;;
44145;SDS011;29809;52.432;4.780;2023-04-27T09:30:50;2.15;;;1.85;;
44145;SDS011;29809;52.432;4.780;2023-04-27T09:33:21;2.60;;;1.58;;
44145;SDS011;29809;52.432;4.780;2023-04-27T09:35:46;3.70;;;1.67;;
44145;SDS011;29809;52.432;4.780;2023-04-27T09:38:15;2.65;;;1.65;;
44145;SDS011;29809;52.432;4.780;2023-04-27T09:40:41;2.67;;;1.67;;
44145;SDS011;29809;52.432;4.780;2023-04-27T09:43:06;3.22;;;1.52;;
44145;SDS011;29809;52.432;4.780;2023-04-27T09:45:32;3.70;;;1.90;;
44145;SDS011;29809;52.432;4.780;2023-04-27T09:47:57;1.40;;;1.30;;
44145;SDS011;29809;52.432;4.780;2023-04-27T09:50:22;1.83;;;1.40;;
44145;SDS011;29809;52.432;4.780;2023-04-27T09:52:49;3.17;;;1.90;;
44145;SDS011;29809;52.432;4.780;2023-04-27T09:55:15;4.15;;;1.77;;
44145;SDS011;29809;52.432;4.780;2023-04-27T09:58:05;3.28;;;1.55;;
44145;SDS011;29809;52.432;4.780;2023-04-27T10:03:21;8.45;;;2.05;;
44145;SDS011;29809;52.432;4.780;2023-04-27T10:05:51;3.13;;;1.60;;
44145;SDS011;29809;52.432;4.780;2023-04-27T10:08:23;2.40;;;1.65;;
44145;SDS011;29809;52.432;4.780;2023-04-27T10:10:48;3.83;;;1.35;;
44145;SDS011;29809;52.432;4.780;2023-04-27T10:13:23;4.13;;;2.25;;
44145;SDS011;29809;52.432;4.780;2023-04-27T10:15:49;1.45;;;1.33;;
44145;SDS011;29809;52.432;4.780;2023-04-27T10:18:36;3.33;;;1.80;;
44145;SDS011;29809;52.432;4.780;2023-04-27T10:21:09;1.73;;;1.48;;
44145;SDS011;29809;52.432;4.780;2023-04-27T10:23:43;1.63;;;1.50;;
44145;SDS011;29809;52.432;4.780;2023-04-27T10:26:12;2.17;;;1.60;;
44145;SDS011;29809;52.432;4.780;2023-04-27T10:28:37;3.28;;;1.60;;
44145;SDS011;29809;52.432;4.780;2023-04-27T10:31:08;3.10;;;1.50;;
44145;SDS011;29809;52.432;4.780;2023-04-27T10:33:40;3.00;;;1.60;;
44145;SDS011;29809;52.432;4.780;2023-04-27T10:36:06;2.20;;;1.65;;
44145;SDS011;29809;52.432;4.780;2023-04-27T10:38:38;2.20;;;1.95;;
44145;SDS011;29809;52.432;4.780;2023-04-27T10:41:04;2.83;;;1.40;;
44145;SDS011;29809;52.432;4.780;2023-04-27T10:43:33;2.65;;;1.60;;
44145;SDS011;29809;52.432;4.780;2023-04-27T10:48:33;1.50;;;1.30;;
44145;SDS011;29809;52.432;4.780;2023-04-27T10:50:59;2.53;;;1.52;;
44145;SDS011;29809;52.432;4.780;2023-04-27T10:53:25;2.47;;;1.90;;
44145;SDS011;29809;52.432;4.780;2023-04-27T10:55:53;8.82;;;1.95;;
44145;SDS011;29809;52.432;4.780;2023-04-27T10:58:22;3.25;;;1.60;;
44145;SDS011;29809;52.432;4.780;2023-04-27T11:00:47;1.63;;;1.45;;
44145;SDS011;29809;52.432;4.780;2023-04-27T11:03:16;2.70;;;1.50;;
44145;SDS011;29809;52.432;4.780;2023-04-27T11:05:44;3.08;;;1.50;;
44145;SDS011;29809;52.432;4.780;2023-04-27T11:08:10;5.90;;;1.45;;
44145;SDS011;29809;52.432;4.780;2023-04-27T11:10:42;2.28;;;1.77;;
44145;SDS011;29809;52.432;4.780;2023-04-27T11:13:15;2.58;;;1.70;;
44145;SDS011;29809;52.432;4.780;2023-04-27T11:17:30;2.97;;;1.90;;
44145;SDS011;29809;52.432;4.780;2023-04-27T11:19:56;1.33;;;1.23;;
44145;SDS011;29809;52.432;4.780;2023-04-27T11:22:21;2.13;;;1.70;;
44145;SDS011;29809;52.432;4.780;2023-04-27T11:24:49;2.78;;;1.50;;
44145;SDS011;29809;52.432;4.780;2023-04-27T11:27:15;2.65;;;1.85;;
44145;SDS011;29809;52.432;4.780;2023-04-27T11:29:40;2.03;;;1.45;;
44145;SDS011;29809;52.432;4.780;2023-04-27T11:32:06;3.08;;;1.73;;
44145;SDS011;29809;52.432;4.780;2023-04-27T11:34:32;1.65;;;1.55;;
44145;SDS011;29809;52.432;4.780;2023-04-27T11:37:03;2.72;;;1.55;;
44145;SDS011;29809;52.432;4.780;2023-04-27T11:39:36;2.15;;;1.45;;
44145;SDS011;29809;52.432;4.780;2023-04-27T11:42:21;1.50;;;1.40;;
44145;SDS011;29809;52.432;4.780;2023-04-27T11:44:54;4.88;;;1.40;;
44145;SDS011;29809;52.432;4.780;2023-04-27T11:47:20;1.42;;;1.27;;
44145;SDS011;29809;52.432;4.780;2023-04-27T11:49:50;2.13;;;1.30;;
44145;SDS011;29809;52.432;4.780;2023-04-27T11:52:16;2.10;;;1.20;;
44145;SDS011;29809;52.432;4.780;2023-04-27T11:54:51;1.30;;;1.20;;
44145;SDS011;29809;52.432;4.780;2023-04-27T11:57:22;2.13;;;1.42;;
44145;SDS011;29809;52.432;4.780;2023-04-27T11:59:49;1.55;;;1.30;;
44145;SDS011;29809;52.432;4.780;2023-04-27T12:02:14;1.98;;;1.40;;
44145;SDS011;29809;52.432;4.780;2023-04-27T12:04:39;1.50;;;1.40;;
44145;SDS011;29809;52.432;4.780;2023-04-27T12:07:04;1.73;;;1.10;;
44145;SDS011;29809;52.432;4.780;2023-04-27T12:09:30;2.25;;;1.50;;
44145;SDS011;29809;52.432;4.780;2023-04-27T12:11:55;3.63;;;1.92;;
44145;SDS011;29809;52.432;4.780;2023-04-27T12:14:20;1.83;;;1.52;;
44145;SDS011;29809;52.432;4.780;2023-04-27T12:16:46;1.67;;;1.40;;
44145;SDS011;29809;52.432;4.780;2023-04-27T12:19:11;1.85;;;1.65;;
44145;SDS011;29809;52.432;4.780;2023-04-27T12:21:36;1.55;;;1.45;;
44145;SDS011;29809;52.432;4.780;2023-04-27T12:24:01;1.77;;;1.58;;
44145;SDS011;29809;52.432;4.780;2023-04-27T12:26:27;1.73;;;1.33;;
44145;SDS011;29809;52.432;4.780;2023-04-27T12:28:53;1.73;;;1.63;;
44145;SDS011;29809;52.432;4.780;2023-04-27T12:31:18;1.77;;;1.63;;
44145;SDS011;29809;52.432;4.780;2023-04-27T12:33:48;2.05;;;1.83;;
44145;SDS011;29809;52.432;4.780;2023-04-27T12:36:13;2.27;;;1.60;;
44145;SDS011;29809;52.432;4.780;2023-04-27T12:38:39;1.58;;;1.40;;
44145;SDS011;29809;52.432;4.780;2023-04-27T12:41:04;2.28;;;1.30;;
44145;SDS011;29809;52.432;4.780;2023-04-27T12:43:29;1.45;;;1.35;;
44145;SDS011;29809;52.432;4.780;2023-04-27T12:45:55;1.98;;;1.42;;
44145;SDS011;29809;52.432;4.780;2023-04-27T12:48:20;1.48;;;1.38;;
44145;SDS011;29809;52.432;4.780;2023-04-27T12:50:47;1.50;;;1.38;;
44145;SDS011;29809;52.432;4.780;2023-04-27T12:53:12;3.58;;;1.98;;
44145;SDS011;29809;52.432;4.780;2023-04-27T12:55:37;4.33;;;1.90;;
44145;SDS011;29809;52.432;4.780;2023-04-27T12:58:02;1.70;;;1.60;;
44145;SDS011;29809;52.432;4.780;2023-04-27T13:00:29;1.77;;;1.50;;
44145;SDS011;29809;52.432;4.780;2023-04-27T13:02:54;1.85;;;1.75;;
44145;SDS011;29809;52.432;4.780;2023-04-27T13:05:20;2.28;;;1.65;;
44145;SDS011;29809;52.432;4.780;2023-04-27T13:07:46;1.90;;;1.50;;
44145;SDS011;29809;52.432;4.780;2023-04-27T13:10:11;1.83;;;1.35;;
44145;SDS011;29809;52.432;4.780;2023-04-27T13:12:37;3.85;;;1.60;;
44145;SDS011;29809;52.432;4.780;2023-04-27T13:15:02;1.42;;;1.27;;
44145;SDS011;29809;52.432;4.780;2023-04-27T13:17:27;2.00;;;1.80;;
44145;SDS011;29809;52.432;4.780;2023-04-27T13:19:53;1.98;;;1.75;;
44145;SDS011;29809;52.432;4.780;2023-04-27T13:22:18;3.65;;;1.95;;
44145;SDS011;29809;52.432;4.780;2023-04-27T13:24:44;3.28;;;1.90;;
44145;SDS011;29809;52.432;4.780;2023-04-27T13:27:10;2.17;;;1.67;;
44145;SDS011;29809;52.432;4.780;2023-04-27T13:29:38;2.08;;;1.67;;
44145;SDS011;29809;52.432;4.780;2023-04-27T13:32:03;2.10;;;1.73;;
44145;SDS011;29809;52.432;4.780;2023-04-27T13:34:28;1.73;;;1.55;;
44145;SDS011;29809;52.432;4.780;2023-04-27T13:36:54;2.40;;;1.95;;
44145;SDS011;29809;52.432;4.780;2023-04-27T13:39:19;2.13;;;1.90;;
44145;SDS011;29809;52.432;4.780;2023-04-27T13:41:46;2.20;;;1.98;;
44145;SDS011;29809;52.432;4.780;2023-04-27T13:44:11;3.47;;;1.73;;
44145;SDS011;29809;52.432;4.780;2023-04-27T13:46:36;1.80;;;1.70;;
44145;SDS011;29809;52.432;4.780;2023-04-27T13:49:01;2.47;;;2.05;;
44145;SDS011;29809;52.432;4.780;2023-04-27T13:51:27;2.10;;;1.90;;
44145;SDS011;29809;52.432;4.780;2023-04-27T13:53:53;2.05;;;1.83;;
44145;SDS011;29809;52.432;4.780;2023-04-27T13:56:18;1.88;;;1.60;;
44145;SDS011;29809;52.432;4.780;2023-04-27T13:58:44;1.40;;;1.30;;
44145;SDS011;29809;52.432;4.780;2023-04-27T14:01:10;2.67;;;2.10;;
44145;SDS011;29809;52.432;4.780;2023-04-27T14:03:35;3.72;;;2.08;;
44145;SDS011;29809;52.432;4.780;2023-04-27T14:06:01;2.47;;;1.75;;
44145;SDS011;29809;52.432;4.780;2023-04-27T14:08:26;2.63;;;2.13;;
44145;SDS011;29809;52.432;4.780;2023-04-27T14:10:51;2.05;;;1.80;;
44145;SDS011;29809;52.432;4.780;2023-04-27T14:13:17;2.30;;;2.03;;
44145;SDS011;29809;52.432;4.780;2023-04-27T14:15:42;1.52;;;1.42;;
44145;SDS011;29809;52.432;4.780;2023-04-27T14:18:07;2.42;;;1.70;;
44145;SDS011;29809;52.432;4.780;2023-04-27T14:20:33;2.10;;;1.70;;
44145;SDS011;29809;52.432;4.780;2023-04-27T14:22:59;1.73;;;1.40;;
44145;SDS011;29809;52.432;4.780;2023-04-27T14:25:25;2.10;;;1.80;;
44145;SDS011;29809;52.432;4.780;2023-04-27T14:27:52;2.15;;;1.98;;
44145;SDS011;29809;52.432;4.780;2023-04-27T14:30:18;1.85;;;1.73;;
44145;SDS011;29809;52.432;4.780;2023-04-27T14:32:43;2.05;;;1.90;;
44145;SDS011;29809;52.432;4.780;2023-04-27T14:35:09;2.80;;;2.05;;
44145;SDS011;29809;52.432;4.780;2023-04-27T14:37:34;2.05;;;1.88;;
44145;SDS011;29809;52.432;4.780;2023-04-27T14:40:00;2.58;;;2.10;;
44145;SDS011;29809;52.432;4.780;2023-04-27T14:42:25;1.92;;;1.75;;
44145;SDS011;29809;52.432;4.780;2023-04-27T14:44:50;2.75;;;2.25;;